< < Back
Terminal Aerodrome Forecast


Current Version              Previous Versions:   1  2  3  4  5  6  7  8  9  

Terminal Aerodrome Forecast

516
FTUS42 KTAE 231121
TAFABY
TAF
KABY 231121Z 2312/2412 VRB03KT P6SM SCT250
     FM231800 22007KT P6SM FEW040 SCT250
     FM240000 20004KT P6SM FEW250=



Latest METAR

960
SAUS70 KWBC 241400 RRK
MTRABY
METAR KABY 241353Z 00000KT 10SM CLR 29/23 A3008 RMK AO2 SLP182
T02940233


USA.gov is the U.S. government's official web portal to all federal, state and local government web resources and services.